TimeEDT,TemperatureF,Dew PointF,Humidity,Sea Level PressureIn,VisibilityMPH,Wind Direction,Wind SpeedMPH,Gust SpeedMPH,PrecipitationIn,Events,Conditions,WindDirDegrees,DateUTC
12:15 AM,48.2,30.2,50,30.05,10.0,SE,6.9,-,N/A,,Clear,140,2013-05-28 04:15:00
12:35 AM,48.2,30.2,50,30.04,10.0,SE,4.6,-,N/A,,Clear,130,2013-05-28 04:35:00
12:55 AM,50.0,30.2,47,30.04,10.0,ESE,6.9,-,N/A,,Clear,120,2013-05-28 04:55:00
1:15 AM,50.0,28.4,43,30.04,10.0,ESE,9.2,-,N/A,,Clear,120,2013-05-28 05:15:00
1:35 AM,50.0,28.4,43,30.03,10.0,ESE,9.2,-,N/A,,Clear,120,2013-05-28 05:35:00
1:55 AM,50.0,28.4,43,30.03,10.0,ESE,10.4,-,N/A,,Clear,120,2013-05-28 05:55:00
2:15 AM,48.2,30.2,50,30.03,10.0,ESE,8.1,-,N/A,,Clear,120,2013-05-28 06:15:00
2:35 AM,48.2,30.2,50,30.03,10.0,ESE,6.9,-,N/A,,Clear,120,2013-05-28 06:35:00
2:55 AM,48.2,30.2,50,30.02,10.0,ESE,6.9,-,N/A,,Clear,120,2013-05-28 06:55:00
3:15 AM,48.2,30.2,50,30.02,10.0,ESE,8.1,-,N/A,,Clear,120,2013-05-28 07:15:00
3:35 AM,48.2,30.2,50,30.01,10.0,ESE,10.4,-,N/A,,Clear,110,2013-05-28 07:35:00
3:55 AM,48.2,30.2,50,30.01,10.0,ESE,9.2,-,N/A,,Clear,120,2013-05-28 07:55:00
4:15 AM,48.2,30.2,50,30.00,10.0,ESE,9.2,-,N/A,,Clear,110,2013-05-28 08:15:00
4:35 AM,48.2,30.2,50,29.99,10.0,East,8.1,-,N/A,,Scattered Clouds,100,2013-05-28 08:35:00
4:55 AM,48.2,35.6,62,29.98,10.0,East,10.4,-,N/A,,Overcast,90,2013-05-28 08:55:00
5:15 AM,50.0,37.4,62,29.98,10.0,East,10.4,-,N/A,,Overcast,90,2013-05-28 09:15:00
5:35 AM,50.0,37.4,62,29.98,10.0,East,10.4,-,N/A,,Overcast,90,2013-05-28 09:35:00
5:55 AM,48.2,37.4,66,29.97,10.0,East,10.4,-,N/A,,Overcast,80,2013-05-28 09:55:00
6:15 AM,50.0,39.2,66,29.98,10.0,East,10.4,-,N/A,,Overcast,100,2013-05-28 10:15:00
6:35 AM,51.8,39.2,62,29.97,10.0,East,11.5,-,N/A,,Overcast,100,2013-05-28 10:35:00
6:55 AM,51.8,39.2,62,29.98,10.0,ESE,9.2,-,N/A,,Overcast,120,2013-05-28 10:55:00
7:15 AM,51.8,39.2,62,29.98,10.0,ESE,9.2,-,N/A,,Overcast,120,2013-05-28 11:15:00
7:35 AM,51.8,39.2,62,29.97,10.0,ESE,11.5,-,N/A,,Overcast,110,2013-05-28 11:35:00
7:55 AM,51.8,39.2,62,29.97,10.0,East,12.7,-,N/A,,Overcast,100,2013-05-28 11:55:00
8:15 AM,51.8,39.2,62,29.97,10.0,ESE,12.7,-,N/A,,Overcast,110,2013-05-28 12:15:00
8:35 AM,53.6,39.2,58,29.96,10.0,ESE,15.0,18.4,N/A,,Overcast,110,2013-05-28 12:35:00
8:55 AM,53.6,39.2,58,29.95,10.0,ESE,15.0,-,N/A,,Overcast,110,2013-05-28 12:55:00
9:15 AM,53.6,41.0,62,29.95,10.0,ESE,15.0,19.6,N/A,,Overcast,120,2013-05-28 13:15:00
9:35 AM,55.4,41.0,58,29.95,10.0,ESE,11.5,-,N/A,,Overcast,120,2013-05-28 13:35:00
9:55 AM,53.6,41.0,62,29.95,10.0,ESE,15.0,20.7,N/A,,Overcast,120,2013-05-28 13:55:00
10:15 AM,53.6,42.8,67,29.95,10.0,ESE,16.1,23.0,N/A,,Overcast,120,2013-05-28 14:15:00
10:35 AM,53.6,46.4,77,29.94,10.0,ESE,17.3,23.0,N/A,,Overcast,110,2013-05-28 14:35:00
10:55 AM,51.8,48.2,88,29.94,9.0,ESE,18.4,23.0,N/A,,Overcast,110,2013-05-28 14:55:00
11:15 AM,51.8,48.2,88,29.93,8.0,East,15.0,23.0,N/A,,Overcast,100,2013-05-28 15:15:00
11:35 AM,53.6,48.2,82,29.93,10.0,ESE,16.1,-,N/A,,Overcast,110,2013-05-28 15:35:00
11:55 AM,53.6,46.4,77,29.92,10.0,ESE,19.6,26.5,N/A,,Overcast,110,2013-05-28 15:55:00
12:15 PM,53.6,46.4,77,29.92,10.0,ESE,21.9,26.5,N/A,,Overcast,110,2013-05-28 16:15:00
12:35 PM,55.4,46.4,72,29.92,10.0,ESE,16.1,21.9,N/A,,Overcast,110,2013-05-28 16:35:00
12:55 PM,55.4,46.4,72,29.92,10.0,ESE,21.9,25.3,N/A,,Overcast,110,2013-05-28 16:55:00
1:15 PM,53.6,46.4,77,29.92,10.0,ESE,13.8,19.6,N/A,,Overcast,120,2013-05-28 17:15:00
1:35 PM,51.8,51.8,100,29.91,7.0,ESE,15.0,20.7,N/A,,Overcast,110,2013-05-28 17:35:00
1:55 PM,51.8,51.8,100,29.90,8.0,ESE,19.6,24.2,N/A,,Overcast,110,2013-05-28 17:55:00
2:15 PM,51.8,51.8,100,29.88,10.0,East,16.1,23.0,N/A,,Overcast,100,2013-05-28 18:15:00
2:35 PM,51.8,50.0,94,29.88,10.0,ESE,20.7,26.5,N/A,,Overcast,110,2013-05-28 18:35:00
2:55 PM,51.8,50.0,94,29.88,10.0,ESE,18.4,26.5,N/A,,Overcast,120,2013-05-28 18:55:00
3:15 PM,51.8,50.0,94,29.87,10.0,ESE,16.1,21.9,N/A,,Overcast,110,2013-05-28 19:15:00
3:35 PM,51.8,50.0,94,29.88,6.0,ESE,13.8,23.0,0.01,,Overcast,120,2013-05-28 19:35:00
3:55 PM,51.8,50.0,94,29.87,6.0,ESE,15.0,20.7,0.03,,Overcast,110,2013-05-28 19:55:00
4:15 PM,51.8,51.8,100,29.87,6.0,ESE,13.8,-,0.01,,Overcast,110,2013-05-28 20:15:00
4:35 PM,51.8,51.8,100,29.86,7.0,ESE,19.6,25.3,0.03,,Overcast,110,2013-05-28 20:35:00
4:55 PM,51.8,51.8,100,29.86,7.0,ESE,17.3,25.3,0.03,,Overcast,110,2013-05-28 20:55:00
5:15 PM,51.8,51.8,100,29.85,8.0,ESE,18.4,-,0.01,,Overcast,110,2013-05-28 21:15:00
5:35 PM,51.8,51.8,100,29.85,4.0,ESE,17.3,24.2,0.02,,Overcast,110,2013-05-28 21:35:00
5:55 PM,51.8,51.8,100,29.84,6.0,ESE,18.4,23.0,0.02,,Overcast,110,2013-05-28 21:55:00
6:15 PM,51.8,50.0,94,29.84,6.0,East,13.8,18.4,N/A,,Overcast,100,2013-05-28 22:15:00
6:35 PM,51.8,50.0,94,29.83,3.0,East,12.7,18.4,N/A,,Overcast,90,2013-05-28 22:35:00
6:55 PM,51.8,50.0,94,29.82,2.5,East,13.8,-,N/A,,Overcast,100,2013-05-28 22:55:00
7:15 PM,51.8,51.8,100,29.82,2.5,East,13.8,18.4,N/A,,Overcast,100,2013-05-28 23:15:00
7:35 PM,51.8,50.0,94,29.81,2.0,East,12.7,-,N/A,,Overcast,100,2013-05-28 23:35:00
7:55 PM,51.8,50.0,94,29.82,2.5,East,11.5,-,N/A,,Overcast,90,2013-05-28 23:55:00
8:15 PM,51.8,51.8,100,29.82,3.0,East,11.5,-,N/A,,Overcast,100,2013-05-29 00:15:00
8:35 PM,51.8,51.8,100,29.81,2.0,East,11.5,-,N/A,,Overcast,100,2013-05-29 00:35:00
8:55 PM,51.8,51.8,100,29.81,1.8,ESE,8.1,-,N/A,,Overcast,110,2013-05-29 00:55:00
9:15 PM,51.8,51.8,100,29.79,2.5,East,11.5,-,N/A,,Overcast,100,2013-05-29 01:15:00
9:35 PM,51.8,51.8,100,29.80,3.0,ESE,12.7,18.4,N/A,,Overcast,110,2013-05-29 01:35:00
9:55 PM,51.8,51.8,100,29.80,2.5,ESE,9.2,-,N/A,,Overcast,120,2013-05-29 01:55:00
10:15 PM,51.8,51.8,100,29.79,1.5,ESE,9.2,-,N/A,,Overcast,110,2013-05-29 02:15:00
10:35 PM,51.8,51.8,100,29.79,0.8,ESE,9.2,-,N/A,,Overcast,120,2013-05-29 02:35:00
10:55 PM,51.8,51.8,100,29.79,0.8,ESE,10.4,-,N/A,,Overcast,120,2013-05-29 02:55:00
11:15 PM,51.8,50.0,94,29.79,0.5,ESE,9.2,-,N/A,,Overcast,120,2013-05-29 03:15:00
11:35 PM,51.8,50.0,94,29.78,0.5,ESE,6.9,-,N/A,,Overcast,120,2013-05-29 03:35:00
11:55 PM,51.8,50.0,94,29.77,0.5,ESE,9.2,-,N/A,,Overcast,120,2013-05-29 03:55:00